createdAt,value
2023-01-21T00:01:20.139Z,100.00
2023-01-21T00:03:48.505Z,100.00
2023-01-21T00:06:18.279Z,100.00
2023-01-21T00:08:46.543Z,100.00
2023-01-21T00:11:16.348Z,100.00
2023-01-21T00:13:45.479Z,100.00
2023-01-21T00:16:14.230Z,100.00
2023-01-21T00:18:42.609Z,100.00
2023-01-21T00:21:11.163Z,100.00
2023-01-21T00:23:41.260Z,100.00
2023-01-21T00:26:11.823Z,100.00
2023-01-21T00:28:41.785Z,100.00
2023-01-21T00:31:11.401Z,100.00
2023-01-21T00:33:39.812Z,100.00
2023-01-21T00:36:10.062Z,100.00
2023-01-21T00:38:38.457Z,100.00
2023-01-21T00:41:10.223Z,100.00
2023-01-21T00:43:39.436Z,100.00
2023-01-21T00:46:07.841Z,100.00
2023-01-21T00:48:36.152Z,100.00
2023-01-21T00:51:04.681Z,100.00
2023-01-21T00:53:34.275Z,100.00
2023-01-21T00:56:03.624Z,100.00
2023-01-21T00:58:33.528Z,100.00
2023-01-21T01:01:03.386Z,100.00
2023-01-21T01:03:32.267Z,100.00
2023-01-21T01:06:04.473Z,100.00
2023-01-21T01:08:32.852Z,100.00
2023-01-21T01:11:01.259Z,100.00
2023-01-21T01:13:30.016Z,100.00
2023-01-21T01:16:00.281Z,100.00
2023-01-21T01:18:29.294Z,100.00
2023-01-21T01:20:58.054Z,100.00
2023-01-21T01:23:26.604Z,100.00
2023-01-21T01:25:58.844Z,100.00
2023-01-21T01:28:27.163Z,100.00
2023-01-21T01:30:55.622Z,100.00
2023-01-21T01:33:25.444Z,100.00
2023-01-21T01:35:53.831Z,100.00
2023-01-21T01:38:23.609Z,100.00
2023-01-21T01:40:53.287Z,100.00
2023-01-21T01:43:24.454Z,100.00
2023-01-21T01:45:53.300Z,100.00
2023-01-21T01:48:25.780Z,100.00
2023-01-21T01:50:54.441Z,100.00
2023-01-21T01:53:22.736Z,100.00
2023-01-21T01:55:51.111Z,100.00
2023-01-21T01:58:20.740Z,100.00
2023-01-21T02:00:49.479Z,100.00
2023-01-21T02:03:35.860Z,100.00
2023-01-21T02:06:05.835Z,100.00
2023-01-21T02:08:36.350Z,100.00
2023-01-21T02:11:07.707Z,100.00
2023-01-21T02:13:35.989Z,100.00
2023-01-21T02:16:19.233Z,100.00
2023-01-21T02:18:51.211Z,100.00
2023-01-21T02:21:48.109Z,100.00
2023-01-21T02:24:46.732Z,100.00
2023-01-21T02:27:33.368Z,100.00
2023-01-21T02:30:44.956Z,100.00
2023-01-21T02:33:31.602Z,100.00
2023-01-21T02:36:08.535Z,100.00
2023-01-21T02:38:42.195Z,100.00
2023-01-21T02:41:18.188Z,100.00
2023-01-21T02:43:51.633Z,100.00
2023-01-21T02:46:23.634Z,100.00
2023-01-21T02:48:57.752Z,100.00
2023-01-21T02:51:26.036Z,100.00
2023-01-21T02:53:54.378Z,100.00
2023-01-21T02:56:25.234Z,100.00
2023-01-21T02:58:57.325Z,100.00
2023-01-21T03:01:32.176Z,100.00
2023-01-21T03:04:24.911Z,100.00
2023-01-21T03:06:59.962Z,100.00
2023-01-21T03:09:30.363Z,100.00
2023-01-21T03:12:05.734Z,100.00
2023-01-21T03:14:56.502Z,100.00
2023-01-21T03:17:28.420Z,100.00
2023-01-21T03:20:04.389Z,100.00
2023-01-21T03:22:35.706Z,100.00
2023-01-21T03:25:04.410Z,100.00
2023-01-21T03:27:34.195Z,100.00
2023-01-21T03:30:05.710Z,100.00
2023-01-21T03:32:35.684Z,100.00
2023-01-21T03:35:07.555Z,100.00
2023-01-21T03:37:40.407Z,100.00
2023-01-21T03:40:15.646Z,100.00
2023-01-21T03:42:44.267Z,100.00
2023-01-21T03:45:13.277Z,100.00
2023-01-21T03:47:43.916Z,100.00
2023-01-21T03:50:16.322Z,100.00
2023-01-21T03:52:45.589Z,100.00
2023-01-21T03:55:15.315Z,100.00
2023-01-21T03:57:43.709Z,100.00
2023-01-21T04:00:13.513Z,100.00
2023-01-21T04:02:41.830Z,100.00
2023-01-21T04:05:10.514Z,100.00
2023-01-21T04:07:40.223Z,100.00
2023-01-21T04:10:10.096Z,100.00
2023-01-21T04:12:38.924Z,100.00
2023-01-21T04:15:08.667Z,100.00
2023-01-21T04:17:37.015Z,100.00
2023-01-21T04:20:06.229Z,100.00
2023-01-21T04:22:34.574Z,100.00
2023-01-21T04:25:05.283Z,100.00
2023-01-21T04:27:33.571Z,100.00
2023-01-21T04:30:01.861Z,100.00
2023-01-21T04:32:30.231Z,100.00
2023-01-21T04:34:58.517Z,100.00
2023-01-21T04:37:26.818Z,100.00
2023-01-21T04:39:55.150Z,100.00
2023-01-21T04:42:25.003Z,100.00
2023-01-21T04:44:53.288Z,100.00
2023-01-21T04:47:21.718Z,100.00
2023-01-21T04:49:50.032Z,100.00
2023-01-21T04:52:18.329Z,100.00
2023-01-21T04:54:46.644Z,100.00
2023-01-21T04:57:15.044Z,100.00
2023-01-21T04:59:44.693Z,100.00
2023-01-21T05:02:12.997Z,100.00
2023-01-21T05:04:41.310Z,100.00
2023-01-21T05:07:11.732Z,100.00
2023-01-21T05:09:40.012Z,100.00
2023-01-21T05:12:08.823Z,100.00
2023-01-21T05:14:37.304Z,100.00
2023-01-21T05:17:07.031Z,100.00
2023-01-21T05:19:35.409Z,100.00
2023-01-21T05:22:03.747Z,100.00
2023-01-21T05:24:32.228Z,100.00
2023-01-21T05:27:00.512Z,100.00
2023-01-21T05:29:28.895Z,100.00
2023-01-21T05:31:57.193Z,100.00
2023-01-21T05:34:26.939Z,100.00
2023-01-21T05:36:55.273Z,100.00
2023-01-21T05:39:23.611Z,100.00
2023-01-21T05:41:51.918Z,100.00
2023-01-21T05:44:20.256Z,100.00
2023-01-21T05:46:48.568Z,100.00
2023-01-21T05:49:16.997Z,100.00
2023-01-21T05:51:46.713Z,100.00
2023-01-21T05:54:15.036Z,100.00
2023-01-21T05:56:43.347Z,100.00
2023-01-21T05:59:11.820Z,100.00
2023-01-21T06:01:40.127Z,100.00
2023-01-21T06:04:08.360Z,100.00
2023-01-21T06:06:36.666Z,100.00
2023-01-21T06:09:06.373Z,100.00
2023-01-21T06:11:34.667Z,100.00
2023-01-21T06:14:03.096Z,100.00
2023-01-21T06:16:31.419Z,100.00
2023-01-21T06:19:00.192Z,100.00
2023-01-21T06:21:28.448Z,100.00
2023-01-21T06:23:57.397Z,100.00
2023-01-21T06:26:27.329Z,100.00
2023-01-21T06:28:56.757Z,100.00
2023-01-21T06:31:25.326Z,100.00
2023-01-21T06:33:53.729Z,100.00
2023-01-21T06:36:22.006Z,100.00
2023-01-21T06:38:50.261Z,100.00
2023-01-21T06:41:18.512Z,100.00
2023-01-21T06:43:48.149Z,100.00
2023-01-21T06:46:16.462Z,100.00
2023-01-21T06:48:44.862Z,100.00
2023-01-21T06:51:13.207Z,100.00
2023-01-21T06:53:41.538Z,100.00
2023-01-21T06:56:09.787Z,100.00
2023-01-21T06:58:38.099Z,100.00
2023-01-21T07:01:07.878Z,100.00
2023-01-21T07:03:36.165Z,100.00
2023-01-21T07:06:04.504Z,100.00
2023-01-21T07:08:32.827Z,100.00
2023-01-21T07:11:01.150Z,100.00
2023-01-21T07:13:29.405Z,100.00
2023-01-21T07:16:00.834Z,100.00
2023-01-21T07:18:30.515Z,100.00
2023-01-21T07:20:58.865Z,100.00
2023-01-21T07:23:27.199Z,100.00
2023-01-21T07:25:55.505Z,100.00
2023-01-21T07:28:23.814Z,100.00
2023-01-21T07:30:52.524Z,100.00
2023-01-21T07:33:20.872Z,100.00
2023-01-21T07:35:50.813Z,100.00
2023-01-21T07:38:19.146Z,100.00
2023-01-21T07:40:49.027Z,100.00
2023-01-21T07:43:17.555Z,100.00
2023-01-21T07:45:46.006Z,100.00
2023-01-21T07:48:14.416Z,100.00
2023-01-21T07:50:42.700Z,100.00
2023-01-21T07:53:13.287Z,100.00
2023-01-21T07:55:41.349Z,100.00
2023-01-21T07:58:10.752Z,100.00
2023-01-21T08:00:39.153Z,100.00
2023-01-21T08:03:07.472Z,100.00
2023-01-21T08:05:35.990Z,100.00
2023-01-21T08:08:04.306Z,100.00
2023-01-21T08:10:33.978Z,100.00
2023-01-21T08:13:03.801Z,100.00
2023-01-21T08:15:32.076Z,100.00
2023-01-21T08:18:00.433Z,100.00
2023-01-21T08:20:28.917Z,100.00
2023-01-21T08:23:00.955Z,100.00
2023-01-21T08:25:29.286Z,100.00
2023-01-21T08:27:59.689Z,100.00
2023-01-21T08:30:28.064Z,100.00
2023-01-21T08:32:56.328Z,100.00
2023-01-21T08:35:24.746Z,100.00
2023-01-21T08:37:55.574Z,100.00
2023-01-21T08:40:25.869Z,100.00
2023-01-21T08:42:54.141Z,100.00
2023-01-21T08:45:23.829Z,100.00
2023-01-21T08:47:52.100Z,100.00
2023-01-21T08:50:20.481Z,100.00
2023-01-21T08:52:52.793Z,100.00
2023-01-21T08:55:21.400Z,100.00
2023-01-21T08:57:52.126Z,100.00
2023-01-21T09:00:21.493Z,100.00
2023-01-21T09:02:51.762Z,100.00
2023-01-21T09:05:20.364Z,100.00
2023-01-21T09:07:48.732Z,100.00
2023-01-21T09:10:37.490Z,100.00
2023-01-21T09:13:06.556Z,100.00
2023-01-21T09:15:38.956Z,100.00
2023-01-21T09:18:08.949Z,100.00
2023-01-21T09:20:37.323Z,100.00
2023-01-21T09:23:24.296Z,100.00
2023-01-21T09:25:53.223Z,100.00
2023-01-21T09:28:22.687Z,100.00
2023-01-21T09:30:51.152Z,100.00
2023-01-21T09:33:20.863Z,100.00
2023-01-21T09:35:54.216Z,100.00
2023-01-21T09:38:22.572Z,100.00
2023-01-21T09:40:51.156Z,100.00
2023-01-21T09:43:22.778Z,100.00
2023-01-21T09:45:51.976Z,100.00
2023-01-21T09:48:28.276Z,100.00
2023-01-21T09:50:58.155Z,100.00
2023-01-21T09:53:29.551Z,100.00
2023-01-21T09:55:59.312Z,100.00
2023-01-21T09:58:31.728Z,100.00
2023-01-21T10:01:02.957Z,100.00
2023-01-21T10:03:38.347Z,100.00
2023-01-21T10:06:13.723Z,100.00
2023-01-21T10:08:59.705Z,100.00
2023-01-21T10:11:39.355Z,100.00
2023-01-21T10:14:18.809Z,100.00
2023-01-21T10:16:51.439Z,99.74
2023-01-21T10:19:24.956Z,94.99
2023-01-21T10:21:55.867Z,99.25
2023-01-21T10:24:26.126Z,90.80
2023-01-21T10:26:55.567Z,95.73
2023-01-21T10:29:25.767Z,91.17
2023-01-21T10:31:59.387Z,96.08
2023-01-21T10:34:31.230Z,92.26
2023-01-21T10:37:09.413Z,89.35
2023-01-21T10:39:46.070Z,92.11
2023-01-21T10:42:32.875Z,91.18
2023-01-21T10:45:04.240Z,86.97
2023-01-21T10:47:38.526Z,91.64
2023-01-21T10:50:23.348Z,89.62
2023-01-21T10:52:55.573Z,83.36
2023-01-21T10:55:28.629Z,86.15
2023-01-21T10:58:00.268Z,86.07
2023-01-21T11:00:30.941Z,80.13
2023-01-21T11:03:02.128Z,87.78
2023-01-21T11:05:32.293Z,85.74
2023-01-21T11:08:00.897Z,97.53
2023-01-21T11:10:29.252Z,95.91
2023-01-21T11:12:57.944Z,92.80
2023-01-21T11:15:27.227Z,91.04
2023-01-21T11:17:56.695Z,100.00
2023-01-21T11:20:33.386Z,95.36
2023-01-21T11:23:03.358Z,95.33
2023-01-21T11:25:38.634Z,90.48
2023-01-21T11:28:07.301Z,91.47
2023-01-21T11:30:50.705Z,91.63
2023-01-21T11:33:25.561Z,100.00
2023-01-21T11:35:55.954Z,98.31
2023-01-21T11:38:33.121Z,95.31
2023-01-21T11:41:03.896Z,100.00
2023-01-21T11:43:37.077Z,96.20
2023-01-21T11:46:31.032Z,99.41
2023-01-21T11:49:20.162Z,95.31
2023-01-21T11:51:49.858Z,93.93
2023-01-21T11:54:19.745Z,85.35
2023-01-21T11:56:56.560Z,88.48
2023-01-21T11:59:28.554Z,89.37
2023-01-21T12:01:59.232Z,84.89
2023-01-21T12:04:27.865Z,89.86
2023-01-21T12:07:00.498Z,92.79
2023-01-21T12:09:29.438Z,92.88
2023-01-21T12:12:20.541Z,92.12
2023-01-21T12:14:53.441Z,89.81
2023-01-21T12:17:32.940Z,95.33
2023-01-21T12:20:13.152Z,93.54
2023-01-21T12:22:51.158Z,95.04
2023-01-21T12:25:24.321Z,94.89
2023-01-21T12:28:05.969Z,98.08
2023-01-21T12:30:40.426Z,97.14
2023-01-21T12:33:14.116Z,92.34
2023-01-21T12:35:46.375Z,100.00
2023-01-21T12:38:19.483Z,100.00
2023-01-21T12:40:51.979Z,100.00
2023-01-21T12:43:23.195Z,100.00
2023-01-21T12:45:55.092Z,100.00
2023-01-21T12:48:28.233Z,100.00
2023-01-21T12:50:59.285Z,100.00
2023-01-21T12:53:34.224Z,100.00
2023-01-21T12:56:20.600Z,98.79
2023-01-21T12:58:53.686Z,100.00
2023-01-21T13:01:35.062Z,100.00
2023-01-21T13:04:08.094Z,100.00
2023-01-21T13:06:53.291Z,100.00
2023-01-21T13:09:32.484Z,100.00
2023-01-21T13:12:04.134Z,96.92
2023-01-21T13:14:35.452Z,97.98
2023-01-21T13:17:06.441Z,99.66
2023-01-21T13:19:34.717Z,100.00
2023-01-21T13:22:06.329Z,100.00
2023-01-21T13:24:47.510Z,100.00
2023-01-21T13:27:18.270Z,100.00
2023-01-21T13:29:49.100Z,100.00
2023-01-21T13:32:26.682Z,100.00
2023-01-21T13:35:02.090Z,100.00
2023-01-21T13:37:36.174Z,100.00
2023-01-21T13:40:23.369Z,100.00
2023-01-21T13:42:57.382Z,100.00
2023-01-21T13:45:29.140Z,100.00
2023-01-21T13:48:11.801Z,100.00
2023-01-21T13:51:01.059Z,100.00
2023-01-21T13:53:47.460Z,100.00
2023-01-21T13:56:34.912Z,100.00
2023-01-21T13:59:06.109Z,100.00
2023-01-21T14:01:38.868Z,100.00
2023-01-21T14:04:12.589Z,100.00
2023-01-21T14:06:43.838Z,100.00
2023-01-21T14:09:14.899Z,100.00
2023-01-21T14:11:47.514Z,100.00
2023-01-21T14:14:41.186Z,100.00
2023-01-21T14:17:29.339Z,100.00
2023-01-21T14:20:17.593Z,100.00
2023-01-21T14:22:57.936Z,100.00
2023-01-21T14:25:34.718Z,100.00
2023-01-21T14:28:10.050Z,100.00
2023-01-21T14:30:43.157Z,100.00
2023-01-21T14:33:14.337Z,100.00
2023-01-21T14:35:45.451Z,100.00
2023-01-21T14:38:21.048Z,100.00
2023-01-21T14:40:50.596Z,100.00
2023-01-21T14:43:48.070Z,100.00
2023-01-21T14:46:34.118Z,100.00
2023-01-21T14:49:08.209Z,100.00
2023-01-21T14:51:38.229Z,100.00
2023-01-21T14:54:13.293Z,100.00
2023-01-21T14:56:41.867Z,100.00
2023-01-21T14:59:27.257Z,100.00
2023-01-21T15:02:01.520Z,100.00
2023-01-21T15:04:31.961Z,100.00
2023-01-21T15:07:01.871Z,100.00
2023-01-21T15:09:32.759Z,100.00
2023-01-21T15:12:03.195Z,100.00
2023-01-21T15:14:35.631Z,100.00
2023-01-21T15:17:04.468Z,100.00
2023-01-21T15:19:34.482Z,100.00
2023-01-21T15:22:25.419Z,100.00
2023-01-21T15:25:19.348Z,100.00
2023-01-21T15:28:33.409Z,100.00
2023-01-21T15:31:05.776Z,100.00
2023-01-21T15:33:38.559Z,100.00
2023-01-21T15:36:15.289Z,100.00
2023-01-21T15:38:43.698Z,100.00
2023-01-21T15:41:19.859Z,100.00
2023-01-21T15:43:51.972Z,100.00
2023-01-21T15:46:28.046Z,100.00
2023-01-21T15:49:03.782Z,100.00
2023-01-21T15:51:40.860Z,100.00
2023-01-21T15:54:18.833Z,100.00
2023-01-21T15:57:02.157Z,100.00
2023-01-21T15:59:56.442Z,100.00
2023-01-21T16:02:30.131Z,100.00
2023-01-21T16:05:07.870Z,100.00
2023-01-21T16:07:42.487Z,100.00
2023-01-21T16:10:17.483Z,100.00
2023-01-21T16:12:53.044Z,100.00
2023-01-21T16:15:30.090Z,100.00
2023-01-21T16:18:06.990Z,100.00
2023-01-21T16:20:35.588Z,100.00
2023-01-21T16:23:06.165Z,100.00
2023-01-21T16:25:34.328Z,100.00
2023-01-21T16:28:02.504Z,100.00
2023-01-21T16:30:32.382Z,100.00
2023-01-21T16:33:14.888Z,100.00
2023-01-21T16:35:45.013Z,100.00
2023-01-21T16:38:17.469Z,100.00
2023-01-21T16:40:46.165Z,100.00
2023-01-21T16:43:25.095Z,100.00
2023-01-21T16:45:54.656Z,100.00
2023-01-21T16:48:29.519Z,100.00
2023-01-21T16:50:58.242Z,100.00
2023-01-21T16:53:26.844Z,100.00
2023-01-21T16:55:56.770Z,100.00
2023-01-21T16:58:30.235Z,100.00
2023-01-21T17:01:00.707Z,100.00
2023-01-21T17:03:30.147Z,100.00
2023-01-21T17:06:00.476Z,100.00
2023-01-21T17:08:29.119Z,100.00
2023-01-21T17:10:59.650Z,100.00
2023-01-21T17:13:28.466Z,100.00
2023-01-21T17:15:58.480Z,100.00
2023-01-21T17:18:31.076Z,100.00
2023-01-21T17:21:04.897Z,100.00
2023-01-21T17:23:35.519Z,100.00
2023-01-21T17:26:05.576Z,100.00
2023-01-21T17:28:39.655Z,100.00
2023-01-21T17:31:13.254Z,100.00
2023-01-21T17:33:43.606Z,100.00
2023-01-21T17:36:13.876Z,100.00
2023-01-21T17:38:44.127Z,100.00
2023-01-21T17:41:24.736Z,100.00
2023-01-21T17:43:53.204Z,100.00
2023-01-21T17:46:22.963Z,100.00
2023-01-21T17:48:54.678Z,100.00
2023-01-21T17:51:24.924Z,100.00
2023-01-21T17:53:56.429Z,100.00
2023-01-21T17:56:41.131Z,100.00
2023-01-21T17:59:38.757Z,100.00
2023-01-21T18:02:11.729Z,100.00
2023-01-21T18:04:41.886Z,100.00
2023-01-21T18:07:16.846Z,100.00
2023-01-21T18:09:45.190Z,100.00
2023-01-21T18:12:13.555Z,100.00
2023-01-21T18:14:43.419Z,100.00
2023-01-21T18:17:16.435Z,100.00
2023-01-21T18:19:46.180Z,100.00
2023-01-21T18:22:23.664Z,100.00
2023-01-21T18:24:52.480Z,100.00
2023-01-21T18:27:25.731Z,100.00
2023-01-21T18:29:54.899Z,100.00
2023-01-21T18:32:23.233Z,100.00
2023-01-21T18:34:52.944Z,100.00
2023-01-21T18:37:21.640Z,100.00
2023-01-21T18:39:49.991Z,100.00
2023-01-21T18:42:19.610Z,100.00
2023-01-21T18:44:47.871Z,100.00
2023-01-21T18:47:18.961Z,100.00
2023-01-21T18:49:49.516Z,100.00
2023-01-21T18:52:20.655Z,100.00
2023-01-21T18:54:49.067Z,100.00
2023-01-21T18:57:20.143Z,100.00
2023-01-21T18:59:48.521Z,100.00
2023-01-21T19:02:18.890Z,100.00
2023-01-21T19:04:47.612Z,100.00
2023-01-21T19:07:16.401Z,100.00
2023-01-21T19:09:46.475Z,100.00
2023-01-21T19:12:16.505Z,100.00
2023-01-21T19:14:44.787Z,100.00
2023-01-21T19:17:13.850Z,100.00
2023-01-21T19:19:42.180Z,100.00
2023-01-21T19:22:12.514Z,100.00
2023-01-21T19:24:40.866Z,100.00
2023-01-21T19:27:15.785Z,100.00
2023-01-21T19:29:44.142Z,100.00
2023-01-21T19:32:14.747Z,100.00
2023-01-21T19:34:43.658Z,100.00
2023-01-21T19:37:14.249Z,100.00
2023-01-21T19:39:42.564Z,100.00
2023-01-21T19:42:12.494Z,100.00
2023-01-21T19:44:40.783Z,100.00
2023-01-21T19:47:17.280Z,100.00
2023-01-21T19:49:45.666Z,100.00
2023-01-21T19:52:14.940Z,100.00
2023-01-21T19:54:43.243Z,100.00
2023-01-21T19:57:14.596Z,100.00
2023-01-21T19:59:43.148Z,100.00
2023-01-21T20:02:12.146Z,100.00
2023-01-21T20:04:40.573Z,100.00
2023-01-21T20:07:11.368Z,100.00
2023-01-21T20:09:39.602Z,100.00
2023-01-21T20:12:09.691Z,100.00
2023-01-21T20:14:39.356Z,100.00
2023-01-21T20:17:07.700Z,100.00
2023-01-21T20:19:35.956Z,100.00
2023-01-21T20:22:04.288Z,100.00
2023-01-21T20:24:33.924Z,100.00
2023-01-21T20:27:05.114Z,100.00
2023-01-21T20:29:35.992Z,100.00
2023-01-21T20:32:07.247Z,100.00
2023-01-21T20:34:37.379Z,100.00
2023-01-21T20:37:05.705Z,100.00
2023-01-21T20:39:34.003Z,100.00
2023-01-21T20:42:02.446Z,100.00
2023-01-21T20:44:30.678Z,100.00
2023-01-21T20:46:59.784Z,100.00
2023-01-21T20:49:30.757Z,100.00
2023-01-21T20:51:59.041Z,100.00
2023-01-21T20:54:27.287Z,100.00
2023-01-21T20:56:55.551Z,100.00
2023-01-21T20:59:23.844Z,100.00
2023-01-21T21:01:55.393Z,100.00
2023-01-21T21:04:24.890Z,100.00
2023-01-21T21:06:54.672Z,100.00
2023-01-21T21:09:22.978Z,100.00
2023-01-21T21:11:51.243Z,100.00
2023-01-21T21:14:20.672Z,100.00
2023-01-21T21:16:49.490Z,100.00
2023-01-21T21:19:17.746Z,100.00
2023-01-21T21:21:46.547Z,100.00
2023-01-21T21:24:16.236Z,100.00
2023-01-21T21:26:45.929Z,100.00
2023-01-21T21:29:14.430Z,100.00
2023-01-21T21:31:42.707Z,100.00
2023-01-21T21:34:11.072Z,100.00
2023-01-21T21:36:42.066Z,100.00
2023-01-21T21:39:10.324Z,100.00
2023-01-21T21:41:58.064Z,100.00
2023-01-21T21:44:26.464Z,100.00
2023-01-21T21:47:12.426Z,100.00
2023-01-21T21:49:40.758Z,100.00
2023-01-21T21:52:09.040Z,100.00
2023-01-21T21:54:37.293Z,100.00
2023-01-21T21:57:07.042Z,100.00
2023-01-21T21:59:35.293Z,100.00
2023-01-21T22:02:06.437Z,100.00
2023-01-21T22:04:34.837Z,100.00
2023-01-21T22:07:03.156Z,100.00
2023-01-21T22:09:31.548Z,100.00
2023-01-21T22:11:59.913Z,100.00
2023-01-21T22:14:29.733Z,100.00
2023-01-21T22:16:58.167Z,100.00
2023-01-21T22:19:26.613Z,100.00
2023-01-21T22:21:54.977Z,100.00
2023-01-21T22:24:23.567Z,100.00
2023-01-21T22:26:51.934Z,100.00
2023-01-21T22:29:20.269Z,100.00
2023-01-21T22:31:50.139Z,100.00
2023-01-21T22:34:18.526Z,100.00
2023-01-21T22:36:48.208Z,100.00
2023-01-21T22:39:16.720Z,100.00
2023-01-21T22:41:45.065Z,100.00
2023-01-21T22:44:13.472Z,100.00
2023-01-21T22:46:41.807Z,100.00
2023-01-21T22:49:12.906Z,100.00
2023-01-21T22:51:41.244Z,100.00
2023-01-21T22:54:09.640Z,100.00
2023-01-21T22:56:51.603Z,100.00
2023-01-21T22:59:20.960Z,100.00
2023-01-21T23:01:51.156Z,100.00
2023-01-21T23:04:20.991Z,100.00
2023-01-21T23:06:54.690Z,100.00
2023-01-21T23:09:23.092Z,100.00
2023-01-21T23:11:52.696Z,100.00
2023-01-21T23:14:21.475Z,100.00
2023-01-21T23:16:49.835Z,100.00
2023-01-21T23:19:18.148Z,100.00
2023-01-21T23:21:47.842Z,100.00
2023-01-21T23:24:16.217Z,100.00
2023-01-21T23:26:45.010Z,100.00
2023-01-21T23:29:13.328Z,100.00
2023-01-21T23:31:41.720Z,100.00
2023-01-21T23:34:13.270Z,100.00
2023-01-21T23:36:41.723Z,100.00
2023-01-21T23:39:12.209Z,100.00
2023-01-21T23:41:40.502Z,100.00
2023-01-21T23:44:10.689Z,100.00
2023-01-21T23:46:39.147Z,100.00
2023-01-21T23:49:07.991Z,100.00
2023-01-21T23:51:36.667Z,100.00
2023-01-21T23:54:05.254Z,100.00
2023-01-21T23:56:35.106Z,100.00
2023-01-21T23:59:03.436Z,100.00
